Tiempo atmosférico en la estación meteorológica de El Pedregal, Guadalajara (1185 m.)

Fecha
DESCASC
Temp. máxima en grados centígrados (hora)
DESCASC
Temp. mínima en grados centígrados (hora)
DESCASC
Temp. media en grados centígrados
DESCASC
Racha de viento máxima en m/sg (hora)
DESCASC
Velocidad máxima media en intervalos de 10 minutos(hora)
DESCASC
Precipitaciones diarias en mm
DESCASC
Precipitaciones de 00:00 a 06:00 en mm
DESCASC
Precipitaciones de 06:00 a 12:00 en mm
DESCASC
Precipitaciones de 12:00 a 18:00 en mm
DESCASC
Precipitaciones de 18:00 a 24:00 en mm
DESCASC
24-09-2017 26.3 (17:00) 12.3 (04:50) 19.3 7.5 (17:30) 4.72 (09:40) 0 0 0 0 0
23-09-2017 25.5 (17:50) 6.2 (07:50) 15.8 6.11 (01:10) 3.61 (13:50) 0 0 0 0 0
22-09-2017 18.7 (16:20) 10.9 (09:00) 14.8 10.56 (20:00) 6.11 (20:00) 8.6 0 2.8 0.2 5.6
21-09-2017 28.2 (17:10) 8.9 (00:00) 18.6 8.06 (18:50) 5.56 (19:20) 0 0 0 0 0
20-09-2017 26.2 (16:40) 5.1 (00:00) 15.7 6.67 (16:30) 3.89 (18:00) 0 0 0 0 0
19-09-2017 20.6 (17:10) 5.1 (00:00) 12.9 8.89 (15:20) 4.17 (14:30) 0 0 0 0 0
18-09-2017 19.6 (16:50) 6.2 (00:00) 12.9 9.44 (14:40) 5 (14:40) 0 0 0 0 0
17-09-2017 21.5 (16:00) 3.6 (00:00) 12.5 9.44 (17:10) 5.83 (11:20) 0 0 0 0 0
16-09-2017 17.3 (18:00) 0.7 (00:00) 9 9.44 (17:50) 5 (18:30) 0 0 0 0 0
15-09-2017 10.9 (19:10) 7 (00:00) 8.9 7.78 (12:20) 5 (09:30) 0 0 0 0 0
14-09-2017 24.1 (15:10) 8.1 (00:00) 16.1 9.17 (12:20) 6.11 (18:20) 0 0 0 0 0
13-09-2017 29 (17:10) 9.9 (00:00) 19.4 8.33 (18:20) 4.72 (13:10) 0 0 0 0 0
12-09-2017 21.9 (18:00) 9.3 (00:00) 15.6 8.61 (14:40) 4.44 (16:40) 0 0 0 0 0
11-09-2017 25.9 (16:50) 11.2 (00:00) 18.5 14.17 (16:20) 7.78 (16:20) 0 0 0 0 0
10-09-2017 18.5 (17:20) 6.8 (00:00) 12.7 10.28 (18:30) 5.83 (17:50) 0.2 0 0 0.2 0
09-09-2017 16.9 (11:20) 9 (00:00) 12.9 11.11 (17:20) 4.72 (14:20) 1.2 0 0 0.2 1
08-09-2017 27.5 (16:50) 8 (00:00) 17.8 8.89 (18:00) 5 (17:30) 0 0 0 0 0
07-09-2017 24.9 (17:20) 9.6 (00:00) 17.3 7.22 (16:10) 3.61 (15:40) 0 0 0 0 0
06-09-2017 25.4 (15:50) 11.7 (00:00) 18.5 7.78 (15:20) 5 (19:20) 0 0 0 0 0
05-09-2017 29.7 (17:40) 12.1 (00:00) 20.9 7.5 (14:40) 4.72 (21:40) 0 0 0 0 0
04-09-2017 26 (17:10) 13 (00:00) 19.5 8.61 (17:00) 5.56 (09:10) 0 0 0 0 0
03-09-2017 27.2 (17:40) 9.9 (00:00) 18.6 12.78 (16:00) 6.11 (14:30) 0 0 0 0 0
02-09-2017 24.2 (18:10) 6.2 (00:00) 15.2 8.33 (13:10) 3.33 (17:20) 0 0 0 0 0
01-09-2017 22 (17:20) 10.2 (00:00) 16.1 7.22 (16:40) 4.44 (20:30) 0 0 0 0 0
31-08-2017 22.7 (17:30) 12.2 (00:00) 17.5 7.22 (17:50) 4.44 (20:50) 0 0 0 0 0
30-08-2017 24.6 (18:40) 12.4 (00:00) 18.5 8.61 (17:10) 4.72 (01:00) 0 0 0 0 0
29-08-2017 22.5 (15:00) 11.7 (00:00) 17.1 10.83 (17:50) 7.22 (16:00) 0.8 0 0.6 0.2 0
28-08-2017 27.7 (14:00) 12.9 (00:00) 20.3 13.33 (18:20) 7.78 (14:10) 36.2 0 0 6 30.2
27-08-2017 23.9 (12:00) 13.5 (00:00) 18.7 12.5 (13:40) 7.78 (13:40) 10.4 4.4 0.2 4.8 1
26-08-2017 32.1 (13:20) 20.2 (00:00) 26.1 11.67 (20:50) 6.94 (16:30) 0 0 0 0 0

Gráficas

Temp. máximas Temp. mínimas Temp. medias Precipitaciones Rachas de viento máximas Velocidades máximas media en intervalos de 10 minutos

Datos horarios

Fecha y hora oficial Temperatura (ºC) Velocidad del viento (km/h) Dirección del viento Racha (km/h) Dirección de racha Precipitación (mm) Presión (hPa) Tendencia (hPa) Humedad (%)
2017-09-24 23:00:00 16.4 3 Norte 15 Oeste 0 -- -- 54
2017-09-24 22:00:00 19 7 Noroeste 18 Oeste 0 -- -- 43
2017-09-24 21:00:00 20.4 8 Oeste 15 Sudoeste 0 -- -- 38
2017-09-24 20:00:00 21.2 6 Oeste 18 Oeste 0 -- -- 36
2017-09-24 19:00:00 24.3 12 Oeste 23 Oeste 0 -- -- 30
2017-09-24 18:00:00 25.3 10 Oeste 27 Noroeste 0 -- -- 29
2017-09-24 17:00:00 26.3 9 Oeste 23 Oeste 0 -- -- 29
2017-09-24 16:00:00 25.4 13 Noroeste 27 Oeste 0 -- -- 29
2017-09-24 15:00:00 25.1 11 Oeste 22 Oeste 0 -- -- 31
2017-09-24 14:00:00 24.7 10 Noroeste 27 Noroeste 0 -- -- 32
2017-09-24 13:00:00 23.7 12 Oeste 27 Oeste 0 -- -- 34
2017-09-24 12:00:00 22.9 12 Oeste 24 Oeste 0 -- -- 37
2017-09-24 11:00:00 21.7 10 Oeste 23 Sudoeste 0 -- -- 42
2017-09-24 10:00:00 19.5 16 Sudoeste 26 Sudoeste 0 -- -- 47
2017-09-24 09:00:00 16.8 13 Oeste 25 Oeste 0 -- -- 54
2017-09-24 08:00:00 14.8 14 Oeste 20 Oeste 0 -- -- 60
2017-09-24 07:00:00 15.2 12 Oeste 18 Oeste 0 -- -- 58
2017-09-24 06:00:00 14.4 8 Oeste 19 Oeste 0 -- -- 59
2017-09-24 05:00:00 13.2 5 Oeste 12 Noroeste 0 -- -- 64
2017-09-24 04:00:00 13.1 2 Norte 9 Oeste 0 -- -- 66
2017-09-24 03:00:00 13.7 5 Oeste 12 Oeste 0 -- -- 63
2017-09-24 02:00:00 14.6 6 Oeste 10 Oeste 0 -- -- 59
2017-09-24 01:00:00 13.7 2 Norte 8 Noroeste 0 -- -- 66
2017-09-24 00:00:00 13 0 Calma 10 Oeste 0 -- -- 67
2017-09-23 23:00:00 14.8 4 Oeste 9 Oeste 0 -- -- 57
2017-09-23 22:00:00 15.1 2 Nordeste 9 Oeste 0 -- -- 63
2017-09-23 21:00:00 14.5 5 Oeste 8 Oeste 0 -- -- 66
2017-09-23 20:00:00 18.6 3 Oeste 11 Sur 0 -- -- 53
2017-09-23 19:00:00 21.7 7 Sur 15 Sudeste 0 -- -- 44
2017-09-23 18:00:00 24 10 Este 17 Este 0 -- -- 40
2017-09-23 17:00:00 22.5 9 Sudeste 17 Sudeste 0 -- -- 43
2017-09-23 16:00:00 23.1 8 Este 15 Este 0 -- -- 44
2017-09-23 15:00:00 23.6 9 Este 18 Sudeste 0 -- -- 46
2017-09-23 14:00:00 21.9 13 Este 18 Este 0 -- -- 47
2017-09-23 13:00:00 21.3 7 Sudeste 15 Este 0 -- -- 50
2017-09-23 12:00:00 21.1 4 Este 12 Sudeste 0 -- -- 52
2017-09-23 11:00:00 21 3 Este 5 Este 0 -- -- 47
2017-09-23 10:00:00 17.3 2 Este 10 Oeste 0 -- -- 63
2017-09-23 09:00:00 9.7 5 Oeste 10 Oeste 0 -- -- 86
2017-09-23 08:00:00 6.6 6 Oeste 8 Oeste 0 -- -- 94
2017-09-23 07:00:00 7.1 0 Calma 10 Oeste 0 -- -- 90
2017-09-23 06:00:00 7.8 4 Oeste 12 Oeste 0 -- -- 89
2017-09-23 05:00:00 8.2 6 Oeste 12 Oeste 0 -- -- 89
2017-09-23 04:00:00 8.7 0 Calma 7 Oeste 0 -- -- 88
2017-09-23 03:00:00 10.7 0 Calma 11 Sur 0 -- -- 78
2017-09-23 02:00:00 11.2 3 Este 22 Sudoeste 0 -- -- 80
2017-09-23 01:00:00 11.8 5 Sudoeste 13 Sudoeste 0 -- -- 75
2017-09-23 00:00:00 12.7 9 Sudeste 24 Sudeste 0 -- -- 72
2017-09-22 23:00:00 12.6 14 Sur 32 Sur 0 -- -- 71
2017-09-22 22:00:00 11.2 16 Sudeste 27 Sudoeste 3 -- -- 87
2017-09-22 21:00:00 11.5 14 Sudoeste 29 Oeste 2.6 -- -- 82
2017-09-22 20:00:00 14 22 Oeste 38 Oeste 0 -- -- 64
2017-09-22 19:00:00 15.8 11 Sudeste 22 Sur 0 -- -- 70
2017-09-22 18:00:00 16.8 2 Norte 14 Este 0 -- -- 70
2017-09-22 17:00:00 17.3 11 Sudeste 20 Este 0 -- -- 69
2017-09-22 16:00:00 17.5 12 Este 24 Este 0 -- -- 74
2017-09-22 15:00:00 16.3 17 Sudeste 25 Sudeste 0 -- -- 71
2017-09-22 14:00:00 14.8 18 Este 27 Este 0.2 -- -- 86
2017-09-22 13:00:00 16.3 13 Este 20 Sudeste 0 -- -- 71
2017-09-22 12:00:00 15.5 11 Sudeste 19 Sudeste 0.2 -- -- 75
2017-09-22 11:00:00 12.4 9 Sudeste 19 Oeste 0.6 -- -- 85
2017-09-22 10:00:00 12 8 Sur 22 Este 0.2 -- -- 90
2017-09-22 09:00:00 10.9 13 Norte 22 Norte 1.6 -- -- 92
2017-09-22 08:00:00 11.2 5 Norte 17 Norte 0.2 -- -- 86
2017-09-22 07:00:00 12.3 11 Este 23 Sudeste 0 -- -- 87
2017-09-22 06:00:00 12.8 13 Sudeste 19 Sudeste 0 -- -- 93
2017-09-22 05:00:00 12.5 14 Sudeste 19 Sudeste 0 -- -- 94
2017-09-22 04:00:00 12.8 5 Sudeste 9 Sudeste 0 -- -- 93
2017-09-22 03:00:00 13.1 6 Sudeste 16 Sudeste 0 -- -- 92
2017-09-22 02:00:00 14 13 Sudeste 24 Nordeste 0 -- -- 90
2017-09-22 01:00:00 14.4 4 Norte 11 Norte 0 -- -- 82
2017-09-22 00:00:00 14.7 3 Sudoeste 14 Sudeste 0 -- -- 65
2017-09-21 23:00:00 14.9 6 Sudeste 12 Sudeste 0 -- -- 58
2017-09-21 22:00:00 16.8 6 Sudeste 19 Este 0 -- -- 53
2017-09-21 21:00:00 19.2 11 Este 22 Nordeste 0 -- -- 42
2017-09-21 20:00:00 20.8 15 Este 28 Este 0 -- -- 39
2017-09-21 19:00:00 23.7 18 Este 29 Este 0 -- -- 34
2017-09-21 18:00:00 27.1 9 Noroeste 27 Oeste 0 -- -- 22
2017-09-21 17:00:00 27 6 Nordeste 26 Sudoeste 0 -- -- 23
2017-09-21 16:00:00 25.6 5 Norte 18 Noroeste 0 -- -- 25
2017-09-21 15:00:00 24.7 12 Oeste 20 Sur 0 -- -- 25
2017-09-21 14:00:00 26.7 8 Este 20 Este 0 -- -- 26
2017-09-21 13:00:00 24.9 8 Nordeste 22 Este 0 -- -- 32
2017-09-21 12:00:00 24.5 8 Noroeste 19 Noroeste 0 -- -- 27
2017-09-21 11:00:00 23.8 5 Sudeste 11 Sudeste 0 -- -- 33
2017-09-21 10:00:00 20.4 3 Sudeste 10 Sudeste 0 -- -- 40
2017-09-21 09:00:00 14 2 Nordeste 5 Nordeste 0 -- -- 59
2017-09-21 08:00:00 9.1 0 Calma 10 Oeste 0 -- -- 66
2017-09-21 07:00:00 10.8 5 Oeste 9 Oeste 0 -- -- 56
2017-09-21 06:00:00 9.7 0 Calma 10 Oeste 0 -- -- 51
2017-09-21 05:00:00 11 8 Oeste 12 Oeste 0 -- -- 45
2017-09-21 04:00:00 9.5 3 Oeste 6 Oeste 0 -- -- 49
2017-09-21 03:00:00 9.5 0 Calma 5 Oeste 0 -- -- 46
2017-09-21 02:00:00 10.3 3 Sudoeste 6 Oeste 0 -- -- 42
2017-09-21 01:00:00 10 0 Calma 7 Sudoeste 0 -- -- 47
2017-09-21 00:00:00 10.7 4 Oeste 10 Oeste 0 -- -- 44
2017-09-20 23:00:00 11.4 5 Sudoeste 10 Oeste 0 -- -- 39
2017-09-20 22:00:00 12.6 2 Sudoeste 8 Sudeste 0 -- -- 37
2017-09-20 21:00:00 14 5 Oeste 14 Este 0 -- -- 33
2017-09-20 20:00:00 20 11 Este 18 Este 0 -- -- 24
2017-09-20 19:00:00 23.8 12 Este 22 Este 0 -- -- 19
2017-09-20 18:00:00 25.4 14 Este 21 Este 0 -- -- 18
2017-09-20 17:00:00 25.7 9 Oeste 24 Oeste 0 -- -- 18
2017-09-20 16:00:00 24.8 8 Noroeste 20 Noroeste 0 -- -- 19
2017-09-20 15:00:00 23.8 7 Noroeste 23 Noroeste 0 -- -- 20
2017-09-20 14:00:00 22.7 9 Oeste 23 Oeste 0 -- -- 20
2017-09-20 13:00:00 22.3 6 Oeste 17 Oeste 0 -- -- 16
2017-09-20 12:00:00 20.2 6 Oeste 16 Oeste 0 -- -- 14
2017-09-20 11:00:00 18.7 6 Oeste 12 Noroeste 0 -- -- 14
2017-09-20 10:00:00 15.5 0 Calma 4 Sudeste 0 -- -- 36
2017-09-20 09:00:00 8.6 0 Calma 8 Oeste 0 -- -- 58
2017-09-20 08:00:00 5.1 5 Oeste 9 Oeste 0 -- -- 64
2017-09-20 07:00:00 5.8 4 Oeste 16 Oeste 0 -- -- 63
2017-09-20 06:00:00 6.7 10 Oeste 16 Sudoeste 0 -- -- 64
2017-09-20 05:00:00 5.8 4 Oeste 10 Oeste 0 -- -- 71
2017-09-20 04:00:00 6.1 8 Oeste 11 Oeste 0 -- -- 72
2017-09-20 03:00:00 5.4 2 Sudeste 4 Este 0 -- -- 77
2017-09-20 02:00:00 6.4 4 Oeste 12 Oeste 0 -- -- 72
2017-09-20 01:00:00 6.2 5 Oeste 8 Oeste 0 -- -- 74
2017-09-20 00:00:00 6.4 2 Oeste 6 Oeste 0 -- -- 71
2017-09-19 23:00:00 7.6 3 Oeste 5 Oeste 0 -- -- 67
2017-09-19 22:00:00 9.9 2 Oeste 8 Nordeste 0 -- -- 59
2017-09-19 21:00:00 12.4 0 Calma 13 Nordeste 0 -- -- 52
2017-09-19 20:00:00 16.1 8 Nordeste 24 Noroeste 0 -- -- 42
2017-09-19 19:00:00 19.4 12 Noroeste 27 Noroeste 0 -- -- 29
2017-09-19 18:00:00 19.9 14 Noroeste 28 Noroeste 0 -- -- 29
2017-09-19 17:00:00 20.2 14 Norte 29 Norte 0 -- -- 28
2017-09-19 16:00:00 19.9 15 Norte 32 Noroeste 0 -- -- 29
2017-09-19 15:00:00 19.5 12 Noroeste 28 Norte 0 -- -- 33
2017-09-19 14:00:00 18.2 12 Noroeste 26 Noroeste 0 -- -- 38
2017-09-19 13:00:00 16.7 12 Noroeste 26 Noroeste 0 -- -- 45
2017-09-19 12:00:00 14.9 13 Noroeste 23 Oeste 0 -- -- 55
2017-09-19 11:00:00 13.5 12 Norte 20 Norte 0 -- -- 63
2017-09-19 10:00:00 11.7 13 Noroeste 22 Noroeste 0 -- -- 72
2017-09-19 09:00:00 8.7 12 Oeste 15 Oeste 0 -- -- 80
2017-09-19 08:00:00 5.6 5 Oeste 11 Oeste 0 -- -- 90
2017-09-19 07:00:00 6 5 Noroeste 14 Oeste 0 -- -- 83
2017-09-19 06:00:00 7.1 8 Oeste 14 Oeste 0 -- -- 81
2017-09-19 05:00:00 6.3 6 Oeste 12 Oeste 0 -- -- 91
2017-09-19 04:00:00 6 6 Oeste 9 Oeste 0 -- -- 90
2017-09-19 03:00:00 6.7 0 Calma 9 Nordeste 0 -- -- 86
2017-09-19 02:00:00 7.6 0 Calma 4 Este 0 -- -- 83
2017-09-19 01:00:00 7.2 3 Oeste 10 Oeste 0 -- -- 83
2017-09-19 00:00:00 7.4 5 Oeste 6 Oeste 0 -- -- 82
2017-09-18 23:00:00 9.5 0 Calma 12 Oeste 0 -- -- 70
2017-09-18 22:00:00 11.2 10 Oeste 17 Noroeste 0 -- -- 56
2017-09-18 21:00:00 13.7 8 Noroeste 17 Noroeste 0 -- -- 48
2017-09-18 20:00:00 15.4 9 Noroeste 29 Norte 0 -- -- 46
2017-09-18 19:00:00 17.7 18 Noroeste 34 Noroeste 0 -- -- 43
2017-09-18 18:00:00 17.8 15 Norte 30 Norte 0 -- -- 44
2017-09-18 17:00:00 19.3 13 Noroeste 30 Noroeste 0 -- -- 39
2017-09-18 16:00:00 19.5 14 Noroeste 31 Noroeste 0 -- -- 36
2017-09-18 15:00:00 18.8 18 Noroeste 34 Noroeste 0 -- -- 40
2017-09-18 14:00:00 18.9 16 Norte 30 Norte 0 -- -- 40
2017-09-18 13:00:00 17.9 13 Noroeste 30 Oeste 0 -- -- 41
2017-09-18 12:00:00 17 9 Noroeste 23 Noroeste 0 -- -- 43
2017-09-18 11:00:00 15.2 9 Norte 19 Noroeste 0 -- -- 48
2017-09-18 10:00:00 13.3 8 Oeste 18 Oeste 0 -- -- 50
2017-09-18 09:00:00 11.1 6 Noroeste 12 Oeste 0 -- -- 46
2017-09-18 08:00:00 6.4 9 Oeste 15 Oeste 0 -- -- 54
2017-09-18 07:00:00 6.8 13 Oeste 16 Oeste 0 -- -- 51
2017-09-18 06:00:00 7.1 12 Oeste 15 Sudoeste 0 -- -- 50
2017-09-18 05:00:00 6.9 8 Oeste 12 Oeste 0 -- -- 51
2017-09-18 04:00:00 7.7 9 Oeste 13 Oeste 0 -- -- 47
2017-09-18 03:00:00 8.1 7 Oeste 12 Oeste 0 -- -- 44
2017-09-18 02:00:00 9.2 9 Oeste 14 Oeste 0 -- -- 41
2017-09-18 01:00:00 9.5 11 Oeste 15 Oeste 0 -- -- 41
2017-09-18 00:00:00 9.2 5 Oeste 10 Oeste 0 -- -- 43
2017-09-17 23:00:00 9 8 Oeste 12 Oeste 0 -- -- 44
2017-09-17 22:00:00 12.3 2 Sudoeste 10 Oeste 0 -- -- 37
2017-09-17 21:00:00 14 4 Noroeste 15 Oeste 0 -- -- 33
2017-09-17 20:00:00 17.6 10 Oeste 28 Oeste 0 -- -- 25
2017-09-17 19:00:00 19.9 14 Noroeste 32 Oeste 0 -- -- 26
2017-09-17 18:00:00 19.3 15 Noroeste 34 Oeste 0 -- -- 26
2017-09-17 17:00:00 19.9 16 Oeste 32 Oeste 0 -- -- 25
2017-09-17 16:00:00 21.5 16 Oeste 32 Oeste 0 -- -- 24
2017-09-17 15:00:00 19.7 14 Oeste 28 Sudoeste 0 -- -- 25
2017-09-17 14:00:00 19.5 14 Oeste 31 Oeste 0 -- -- 26
2017-09-17 13:00:00 17.8 14 Oeste 33 Oeste 0 -- -- 31
2017-09-17 12:00:00 16.7 17 Oeste 32 Oeste 0 -- -- 33
2017-09-17 11:00:00 15.6 15 Oeste 26 Oeste 0 -- -- 35
2017-09-17 10:00:00 13.7 11 Oeste 19 Oeste 0 -- -- 37
2017-09-17 09:00:00 9.7 7 Noroeste 14 Oeste 0 -- -- 48
2017-09-17 08:00:00 5.1 3 Oeste 10 Oeste 0 -- -- 61
2017-09-17 07:00:00 5.1 0 Calma 4 Norte 0 -- -- 62
2017-09-17 06:00:00 4.8 3 Sudoeste 6 Sudoeste 0 -- -- 63
2017-09-17 05:00:00 4.6 0 Calma 8 Oeste 0 -- -- 65
2017-09-17 04:00:00 5.7 5 Oeste 9 Oeste 0 -- -- 63
2017-09-17 03:00:00 3.9 0 Calma 4 Nordeste 0 -- -- 79
2017-09-17 02:00:00 4.4 5 Oeste 12 Sur 0 -- -- 76
2017-09-17 01:00:00 4.3 0 Calma 8 Sur 0 -- -- 76
2017-09-17 00:00:00 5 0 Calma 6 Oeste 0 -- -- 73
2017-09-16 23:00:00 5.7 0 Calma 6 Nordeste 0 -- -- 69
2017-09-16 22:00:00 8 2 Nordeste 9 Nordeste 0 -- -- 64
2017-09-16 21:00:00 9.6 0 Calma 21 Norte 0 -- -- 57
2017-09-16 20:00:00 12.3 14 Norte 29 Norte 0 -- -- 49
2017-09-16 19:00:00 16.2 9 Noroeste 31 Oeste 0 -- -- 30
2017-09-16 18:00:00 17.3 10 Noroeste 34 Oeste 0 -- -- 27
2017-09-16 17:00:00 16.6 13 Norte 33 Noroeste 0 -- -- 28
2017-09-16 16:00:00 15.5 14 Norte 33 Noroeste 0 -- -- 36
2017-09-16 15:00:00 16 11 Noroeste 28 Noroeste 0 -- -- 35
2017-09-16 14:00:00 15.7 6 Noroeste 30 Noroeste 0 -- -- 39
2017-09-16 13:00:00 14.2 10 Norte 20 Nordeste 0 -- -- 44
2017-09-16 12:00:00 14.3 3 Oeste 18 Noroeste 0 -- -- 43
2017-09-16 11:00:00 11.2 5 Noroeste 14 Oeste 0 -- -- 57
2017-09-16 10:00:00 9 3 Oeste 8 Oeste 0 -- -- 69
2017-09-16 09:00:00 4.7 0 Calma 7 Oeste 0 -- -- 86
2017-09-16 08:00:00 0.9 0 Calma 6 Oeste 0 -- -- 93
2017-09-16 07:00:00 1 4 Oeste 8 Oeste 0 -- -- 92
2017-09-16 06:00:00 1.6 7 Oeste 9 Oeste 0 -- -- 92
2017-09-16 05:00:00 1.6 6 Oeste 7 Oeste 0 -- -- 91
2017-09-16 04:00:00 2.3 0 Calma 4 Noroeste 0 -- -- 90
2017-09-16 03:00:00 3.4 0 Calma 8 Este 0 -- -- 88
2017-09-16 02:00:00 4.1 0 Calma 5 Nordeste 0 -- -- 85
2017-09-16 01:00:00 5.3 2 Sudeste 10 Este 0 -- -- 81
2017-09-16 00:00:00 7 3 Sudeste 7 Nordeste 0 -- -- 77
2017-09-15 23:00:00 7.5 5 Nordeste 20 Este 0 -- -- 75
2017-09-15 22:00:00 9.4 10 Este 18 Este 0 -- -- 69
2017-09-15 21:00:00 8.1 3 Oeste 8 Nordeste 0 -- -- 76
2017-09-15 20:00:00 10 4 Nordeste 14 Este 0 -- -- 68
2017-09-15 19:00:00 10.7 9 Nordeste 18 Este 0 -- -- 68
2017-09-15 18:00:00 10.5 8 Nordeste 18 Este 0 -- -- 66
2017-09-15 17:00:00 10.5 9 Este 19 Norte 0 -- -- 62
2017-09-15 16:00:00 9.9 10 Nordeste 17 Nordeste 0 -- -- 69
2017-09-15 15:00:00 9.2 12 Nordeste 20 Nordeste 0 -- -- 74
2017-09-15 14:00:00 8.6 12 Nordeste 24 Nordeste 0 -- -- 77
2017-09-15 13:00:00 7.4 14 Nordeste 28 Nordeste 0 -- -- 86
2017-09-15 12:00:00 8.2 13 Nordeste 27 Nordeste 0 -- -- 76
2017-09-15 11:00:00 7.8 14 Nordeste 26 Este 0 -- -- 79
2017-09-15 10:00:00 7.8 15 Nordeste 27 Nordeste 0 -- -- 78
2017-09-15 09:00:00 7.6 15 Este 27 Nordeste 0 -- -- 78
2017-09-15 08:00:00 8 15 Nordeste 23 Nordeste 0 -- -- 74
2017-09-15 07:00:00 8.3 10 Este 21 Nordeste 0 -- -- 68
2017-09-15 06:00:00 8.3 12 Nordeste 18 Nordeste 0 -- -- 68
2017-09-15 05:00:00 7.9 7 Este 14 Nordeste 0 -- -- 77
2017-09-15 04:00:00 7.6 7 Este 19 Este 0 -- -- 82
2017-09-15 03:00:00 7.8 8 Sudeste 12 Sudeste 0 -- -- 81
2017-09-15 02:00:00 7.6 9 Sudeste 14 Sudeste 0 -- -- 82
2017-09-15 01:00:00 8 9 Sudeste 15 Sudeste 0 -- -- 82
2017-09-15 00:00:00 8.1 7 Sudeste 16 Este 0 -- -- 80
2017-09-14 23:00:00 9.1 12 Este 18 Este 0 -- -- 77
2017-09-14 22:00:00 10.1 14 Este 23 Este 0 -- -- 74
2017-09-14 21:00:00 11.4 15 Este 27 Este 0 -- -- 68
2017-09-14 20:00:00 13.6 12 Nordeste 26 Nordeste 0 -- -- 61
2017-09-14 19:00:00 16.9 18 Nordeste 32 Nordeste 0 -- -- 57
2017-09-14 18:00:00 20.5 17 Nordeste 31 Nordeste 0 -- -- 50
2017-09-14 17:00:00 22.1 17 Nordeste 31 Nordeste 0 -- -- 47
2017-09-14 16:00:00 22 15 Norte 30 Norte 0 -- -- 47
2017-09-14 15:00:00 23.8 14 Norte 30 Norte 0 -- -- 36
2017-09-14 14:00:00 23.6 16 Norte 33 Noroeste 0 -- -- 36
2017-09-14 13:00:00 23.1 15 Norte 33 Norte 0 -- -- 38
2017-09-14 12:00:00 23.3 12 Noroeste 25 Noroeste 0 -- -- 36
2017-09-14 11:00:00 21.7 18 Noroeste 32 Noroeste 0 -- -- 42
2017-09-14 10:00:00 20.9 6 Noroeste 15 Oeste 0 -- -- 43
2017-09-14 09:00:00 17.8 8 Noroeste 15 Oeste 0 -- -- 49
2017-09-14 08:00:00 13 10 Oeste 18 Oeste 0 -- -- 59
2017-09-14 07:00:00 13.6 11 Oeste 17 Oeste 0 -- -- 58
2017-09-14 06:00:00 14 10 Oeste 14 Oeste 0 -- -- 56
2017-09-14 05:00:00 13.7 8 Oeste 10 Oeste 0 -- -- 56
2017-09-14 04:00:00 14.5 6 Oeste 10 Sudoeste 0 -- -- 52
2017-09-14 03:00:00 14.9 0 Calma 7 Oeste 0 -- -- 51
2017-09-14 02:00:00 15.3 3 Nordeste 6 Nordeste 0 -- -- 51
2017-09-14 01:00:00 16.2 0 Calma 9 Oeste 0 -- -- 49
2017-09-14 00:00:00 15.8 3 Sudoeste 12 Sudoeste 0 -- -- 50
2017-09-13 23:00:00 17.4 5 Noroeste 12 Noroeste 0 -- -- 45
2017-09-13 22:00:00 18.2 2 Oeste 7 Oeste 0 -- -- 44
2017-09-13 21:00:00 20.9 3 Oeste 16 Oeste 0 -- -- 36
2017-09-13 20:00:00 24.9 12 Oeste 25 Oeste 0 -- -- 29
2017-09-13 19:00:00 27.4 13 Oeste 30 Oeste 0 -- -- 26
2017-09-13 18:00:00 28.4 13 Oeste 24 Oeste 0 -- -- 24
2017-09-13 17:00:00 28.7 11 Oeste 26 Oeste 0 -- -- 24
2017-09-13 16:00:00 28.7 6 Oeste 19 Este 0 -- -- 24
2017-09-13 15:00:00 27.1 8 Sudeste 22 Este 0 -- -- 30
2017-09-13 14:00:00 26.4 11 Este 24 Este 0 -- -- 32
2017-09-13 13:00:00 25.2 14 Este 22 Este 0 -- -- 35
2017-09-13 12:00:00 24.3 10 Sudeste 20 Sudeste 0 -- -- 37
2017-09-13 11:00:00 23.5 6 Este 11 Este 0 -- -- 39
2017-09-13 10:00:00 19.8 4 Sudeste 10 Sur 0 -- -- 46
2017-09-13 09:00:00 14.8 0 Calma 4 Noroeste 0 -- -- 62
2017-09-13 08:00:00 10.1 0 Calma 5 Sudoeste 0 -- -- 73
2017-09-13 07:00:00 10 0 Calma 11 Oeste 0 -- -- 72
2017-09-13 06:00:00 10.7 7 Oeste 12 Oeste 0 -- -- 69
2017-09-13 05:00:00 11.7 5 Oeste 11 Oeste 0 -- -- 64
2017-09-13 04:00:00 12.1 3 Noroeste 14 Oeste 0 -- -- 62
2017-09-13 03:00:00 12.8 10 Oeste 13 Oeste 0 -- -- 59
2017-09-13 02:00:00 13.1 8 Oeste 12 Oeste 0 -- -- 57
2017-09-13 01:00:00 12.3 9 Oeste 13 Sudoeste 0 -- -- 59
2017-09-13 00:00:00 13.7 4 Noroeste 13 Noroeste 0 -- -- 54
2017-09-12 23:00:00 14.1 9 Noroeste 19 Oeste 0 -- -- 51
2017-09-12 22:00:00 15 9 Noroeste 14 Noroeste 0 -- -- 47
2017-09-12 21:00:00 16 8 Oeste 13 Noroeste 0 -- -- 41
2017-09-12 20:00:00 18.6 12 Noroeste 28 Noroeste 0 -- -- 35
2017-09-12 19:00:00 21.3 14 Noroeste 27 Noroeste 0 -- -- 29
2017-09-12 18:00:00 21.9 9 Norte 29 Noroeste 0 -- -- 32
2017-09-12 17:00:00 21.3 11 Noroeste 30 Noroeste 0 -- -- 35
2017-09-12 16:00:00 20.4 14 Noroeste 30 Noroeste 0 -- -- 35
2017-09-12 15:00:00 19.5 12 Noroeste 31 Noroeste 0 -- -- 42
2017-09-12 14:00:00 18.1 12 Norte 30 Noroeste 0 -- -- 49
2017-09-12 13:00:00 16.4 14 Noroeste 26 Oeste 0 -- -- 58
2017-09-12 12:00:00 15.8 12 Noroeste 26 Noroeste 0 -- -- 60
2017-09-12 11:00:00 14.4 12 Noroeste 23 Noroeste 0 -- -- 69
2017-09-12 10:00:00 12.2 5 Oeste 10 Oeste 0 -- -- 78
2017-09-12 09:00:00 10.3 0 Calma 9 Este 0 -- -- 92
2017-09-12 08:00:00 9.6 6 Este 10 Este 0 -- -- 94
2017-09-12 07:00:00 9.5 4 Sur 10 Norte 0 -- -- 94
2017-09-12 06:00:00 9.3 3 Nordeste 13 Norte 0 -- -- 93
2017-09-12 05:00:00 10.1 8 Norte 15 Norte 0 -- -- 85
2017-09-12 04:00:00 13.3 5 Noroeste 15 Oeste 0 -- -- 63
2017-09-12 03:00:00 14.2 9 Noroeste 20 Oeste 0 -- -- 61
2017-09-12 02:00:00 12.9 5 Oeste 12 Noroeste 0 -- -- 67
2017-09-12 01:00:00 15.7 8 Noroeste 17 Oeste 0 -- -- 58
2017-09-12 00:00:00 13.6 4 Oeste 20 Noroeste 0 -- -- 67
2017-09-11 23:00:00 15.1 4 Oeste 10 Oeste 0 -- -- 61
2017-09-11 22:00:00 17.1 6 Oeste 8 Noroeste 0 -- -- 54
2017-09-11 21:00:00 20.5 5 Noroeste 27 Noroeste 0 -- -- 46
2017-09-11 20:00:00 22.8 12 Noroeste 37 Oeste 0 -- -- 41
2017-09-11 19:00:00 25.3 15 Noroeste 33 Oeste 0 -- -- 34
2017-09-11 18:00:00 24.7 15 Noroeste 41 Oeste 0 -- -- 36
2017-09-11 17:00:00 24.4 22 Noroeste 51 Oeste 0 -- -- 33
2017-09-11 16:00:00 25.5 20 Oeste 44 Oeste 0 -- -- 32
2017-09-11 15:00:00 24.8 19 Oeste 42 Noroeste 0 -- -- 36
2017-09-11 14:00:00 23.3 23 Noroeste 45 Oeste 0 -- -- 38
2017-09-11 13:00:00 22 20 Oeste 37 Oeste 0 -- -- 42
2017-09-11 12:00:00 20.2 22 Noroeste 44 Oeste 0 -- -- 48
2017-09-11 11:00:00 18.5 24 Noroeste 40 Oeste 0 -- -- 55
2017-09-11 10:00:00 17.5 21 Oeste 38 Oeste 0 -- -- 54
2017-09-11 09:00:00 14.1 14 Oeste 27 Oeste 0 -- -- 52
2017-09-11 08:00:00 12.8 17 Oeste 27 Oeste 0 -- -- 53
2017-09-11 07:00:00 11.7 12 Oeste 20 Oeste 0 -- -- 55
2017-09-11 06:00:00 11.3 8 Noroeste 19 Sudoeste 0 -- -- 56
2017-09-11 05:00:00 12.1 10 Noroeste 24 Oeste 0 -- -- 53
2017-09-11 04:00:00 12 10 Noroeste 19 Oeste 0 -- -- 52
2017-09-11 03:00:00 12.8 9 Noroeste 17 Oeste 0 -- -- 48
2017-09-11 02:00:00 13.6 10 Noroeste 25 Sudoeste 0 -- -- 47
2017-09-11 01:00:00 13.6 8 Oeste 21 Sudoeste 0 -- -- 47
2017-09-11 00:00:00 14.3 14 Oeste 22 Oeste 0 -- -- 45
2017-09-10 23:00:00 13.4 10 Oeste 17 Oeste 0 -- -- 48
2017-09-10 22:00:00 14 9 Noroeste 23 Oeste 0 -- -- 44
2017-09-10 21:00:00 14.9 11 Noroeste 27 Noroeste 0 -- -- 43
2017-09-10 20:00:00 16 14 Noroeste 31 Oeste 0 -- -- 42
2017-09-10 19:00:00 17.8 18 Noroeste 37 Noroeste 0 -- -- 39
2017-09-10 18:00:00 18.3 18 Noroeste 36 Noroeste 0 -- -- 37
2017-09-10 17:00:00 18.2 16 Noroeste 32 Noroeste 0 -- -- 41
2017-09-10 16:00:00 15.6 16 Norte 36 Norte 0 -- -- 46
2017-09-10 15:00:00 16 20 Norte 37 Norte 0 -- -- 46
2017-09-10 14:00:00 15.1 14 Noroeste 33 Norte 0 -- -- 47
2017-09-10 13:00:00 12.3 17 Noroeste 36 Norte 0.2 -- -- 58
2017-09-10 12:00:00 12.4 17 Norte 35 Noroeste 0 -- -- 57
2017-09-10 11:00:00 11 19 Noroeste 34 Noroeste 0 -- -- 65
2017-09-10 10:00:00 9.6 17 Noroeste 28 Oeste 0 -- -- 72
2017-09-10 09:00:00 8.1 15 Noroeste 26 Oeste 0 -- -- 77
2017-09-10 08:00:00 7.1 13 Oeste 25 Oeste 0 -- -- 82
2017-09-10 07:00:00 6.8 17 Oeste 24 Oeste 0 -- -- 84
2017-09-10 06:00:00 6.8 13 Oeste 25 Noroeste 0 -- -- 86
2017-09-10 05:00:00 7.6 11 Noroeste 27 Noroeste 0 -- -- 83
2017-09-10 04:00:00 8.3 11 Noroeste 21 Noroeste 0 -- -- 80
2017-09-10 03:00:00 8.7 11 Noroeste 21 Noroeste 0 -- -- 78
2017-09-10 02:00:00 9 9 Noroeste 19 Noroeste 0 -- -- 83
2017-09-10 01:00:00 9.5 9 Noroeste 18 Norte 0 -- -- 83
2017-09-10 00:00:00 9.7 4 Noroeste 8 Noroeste 0 -- -- 89
2017-09-09 23:00:00 9.6 5 Noroeste 14 Norte 0.2 -- -- 89
2017-09-09 22:00:00 9 2 Norte 8 Oeste 0 -- -- 91
2017-09-09 21:00:00 9.6 0 Calma 24 Nordeste 0.4 -- -- 90
2017-09-09 20:00:00 11.7 5 Nordeste 14 Este 0.4 -- -- 82
2017-09-09 19:00:00 12.2 11 Este 18 Nordeste 0 -- -- 79
2017-09-09 18:00:00 12.4 15 Nordeste 40 Nordeste 0.2 -- -- 78
2017-09-09 17:00:00 16.6 9 Sudeste 19 Este 0 -- -- 59
2017-09-09 16:00:00 13.6 12 Este 20 Este 0 -- -- 71
2017-09-09 15:00:00 12.8 11 Nordeste 31 Norte 0 -- -- 77
2017-09-09 14:00:00 14.4 9 Norte 22 Oeste 0 -- -- 73
2017-09-09 13:00:00 14.4 15 Noroeste 25 Noroeste 0 -- -- 69
2017-09-09 12:00:00 16 15 Noroeste 28 Noroeste 0 -- -- 64
2017-09-09 11:00:00 16.1 9 Noroeste 24 Oeste 0 -- -- 57
2017-09-09 10:00:00 15.4 10 Noroeste 18 Oeste 0 -- -- 57
2017-09-09 09:00:00 14.8 8 Oeste 16 Noroeste 0 -- -- 40
2017-09-09 08:00:00 12.4 10 Oeste 16 Noroeste 0 -- -- 42
2017-09-09 07:00:00 14.1 8 Noroeste 14 Oeste 0 -- -- 36
2017-09-09 06:00:00 16 9 Oeste 18 Oeste 0 -- -- 31
2017-09-09 05:00:00 14.1 6 Noroeste 12 Oeste 0 -- -- 37
2017-09-09 04:00:00 13.5 0 Calma 9 Oeste 0 -- -- 40
2017-09-09 03:00:00 15.3 5 Oeste 10 Oeste 0 -- -- 35
2017-09-09 02:00:00 14.1 4 Noroeste 8 Oeste 0 -- -- 38
2017-09-09 01:00:00 14.9 4 Oeste 8 Oeste 0 -- -- 37
2017-09-09 00:00:00 16.2 5 Oeste 14 Oeste 0 -- -- 34
2017-09-08 23:00:00 16.9 0 Calma 9 Oeste 0 -- -- 34
2017-09-08 22:00:00 18.4 3 Noroeste 10 Noroeste 0 -- -- 31
2017-09-08 21:00:00 21.2 5 Oeste 16 Sudoeste 0 -- -- 25
2017-09-08 20:00:00 24.1 9 Oeste 29 Oeste 0 -- -- 22
2017-09-08 19:00:00 26.2 15 Oeste 31 Oeste 0 -- -- 20
2017-09-08 18:00:00 26.9 18 Oeste 32 Noroeste 0 -- -- 20
2017-09-08 17:00:00 27.3 13 Oeste 28 Oeste 0 -- -- 20
2017-09-08 16:00:00 26.7 14 Noroeste 32 Oeste 0 -- -- 20
2017-09-08 15:00:00 26.2 15 Oeste 30 Oeste 0 -- -- 20
2017-09-08 14:00:00 25.5 12 Oeste 23 Noroeste 0 -- -- 23
2017-09-08 13:00:00 24.2 12 Noroeste 25 Oeste 0 -- -- 23
2017-09-08 12:00:00 23.7 9 Oeste 22 Oeste 0 -- -- 26
2017-09-08 11:00:00 22.1 9 Sudoeste 15 Oeste 0 -- -- 26
2017-09-08 10:00:00 19.4 2 Sur 8 Sur 0 -- -- 33
2017-09-08 09:00:00 12.7 0 Calma 12 Oeste 0 -- -- 51
2017-09-08 08:00:00 9.8 9 Oeste 15 Oeste 0 -- -- 56
2017-09-08 07:00:00 8.3 0 Calma 8 Oeste 0 -- -- 66
2017-09-08 06:00:00 8 0 Calma 9 Oeste 0 -- -- 70
2017-09-08 05:00:00 8.7 6 Oeste 9 Oeste 0 -- -- 68
2017-09-08 04:00:00 9.5 6 Oeste 9 Oeste 0 -- -- 66
2017-09-08 03:00:00 9.6 3 Oeste 10 Oeste 0 -- -- 66
2017-09-08 02:00:00 9.6 6 Oeste 8 Oeste 0 -- -- 67
2017-09-08 01:00:00 10.6 4 Sudoeste 7 Oeste 0 -- -- 63
2017-09-08 00:00:00 10.9 3 Oeste 7 Oeste 0 -- -- 67
2017-09-07 23:00:00 13.3 0 Calma 6 Sudeste 0 -- -- 62
2017-09-07 22:00:00 15.1 2 Norte 8 Sudeste 0 -- -- 56
2017-09-07 21:00:00 17.2 6 Norte 9 Norte 0 -- -- 45
2017-09-07 20:00:00 21.4 6 Noroeste 15 Norte 0 -- -- 26
2017-09-07 19:00:00 23.4 9 Norte 19 Norte 0 -- -- 23
2017-09-07 18:00:00 24.4 11 Norte 22 Norte 0 -- -- 21
2017-09-07 17:00:00 24.7 7 Noroeste 26 Norte 0 -- -- 25
2017-09-07 16:00:00 24.4 12 Norte 24 Norte 0 -- -- 20
2017-09-07 15:00:00 24.3 11 Nordeste 20 Norte 0 -- -- 21
2017-09-07 14:00:00 23.2 8 Norte 20 Norte 0 -- -- 32
2017-09-07 13:00:00 21 10 Norte 19 Nordeste 0 -- -- 46
2017-09-07 12:00:00 20.8 9 Nordeste 19 Este 0 -- -- 49
2017-09-07 11:00:00 20.2 6 Este 11 Nordeste 0 -- -- 53
2017-09-07 10:00:00 16.5 5 Nordeste 9 Nordeste 0 -- -- 66
2017-09-07 09:00:00 12.8 0 Calma 5 Sudeste 0 -- -- 81
2017-09-07 08:00:00 9.6 0 Calma 8 Oeste 0 -- -- 89
2017-09-07 07:00:00 9.6 5 Oeste 6 Oeste 0 -- -- 87
2017-09-07 06:00:00 10.9 2 Norte 7 Nordeste 0 -- -- 85
2017-09-07 05:00:00 11.7 4 Nordeste 8 Norte 0 -- -- 87
2017-09-07 04:00:00 11.1 0 Calma 4 Oeste 0 -- -- 87
2017-09-07 03:00:00 11.3 0 Calma 5 Norte 0 -- -- 86
2017-09-07 02:00:00 12.4 4 Norte 7 Nordeste 0 -- -- 82
2017-09-07 01:00:00 13 0 Calma 8 Nordeste 0 -- -- 82
2017-09-07 00:00:00 13.9 3 Sudeste 10 Nordeste 0 -- -- 79
2017-09-06 23:00:00 14.7 2 Nordeste 8 Nordeste 0 -- -- 78
2017-09-06 22:00:00 15.9 5 Este 13 Este 0 -- -- 73
2017-09-06 21:00:00 17.8 8 Este 22 Este 0 -- -- 67
2017-09-06 20:00:00 20.8 15 Nordeste 26 Nordeste 0 -- -- 57
2017-09-06 19:00:00 23.2 17 Nordeste 26 Nordeste 0 -- -- 49
2017-09-06 18:00:00 24.6 15 Nordeste 26 Norte 0 -- -- 46
2017-09-06 17:00:00 25 17 Nordeste 28 Nordeste 0 -- -- 46
2017-09-06 16:00:00 24.8 15 Nordeste 28 Este 0 -- -- 46
2017-09-06 15:00:00 24.9 15 Nordeste 26 Norte 0 -- -- 46
2017-09-06 14:00:00 24.3 13 Nordeste 26 Nordeste 0 -- -- 46
2017-09-06 13:00:00 23.3 12 Este 22 Este 0 -- -- 48
2017-09-06 12:00:00 21.2 14 Nordeste 22 Nordeste 0 -- -- 53
2017-09-06 11:00:00 20 10 Este 17 Sudeste 0 -- -- 59
2017-09-06 10:00:00 16.4 12 Sudeste 16 Sudeste 0 -- -- 72
2017-09-06 09:00:00 14.2 5 Este 10 Este 0 -- -- 88
2017-09-06 08:00:00 12.7 4 Nordeste 13 Nordeste 0 -- -- 92
2017-09-06 07:00:00 11.9 0 Calma 6 Oeste 0 -- -- 91
2017-09-06 06:00:00 12.5 4 Oeste 7 Oeste 0 -- -- 91
2017-09-06 05:00:00 12.3 3 Oeste 6 Oeste 0 -- -- 90
2017-09-06 04:00:00 13.4 3 Oeste 5 Oeste 0 -- -- 88
2017-09-06 03:00:00 14.9 3 Oeste 9 Sudeste 0 -- -- 83
2017-09-06 02:00:00 16.4 0 Calma 6 Este 0 -- -- 78
2017-09-06 01:00:00 17.6 0 Calma 12 Este 0 -- -- 72
2017-09-06 00:00:00 19.1 7 Este 18 Este 0 -- -- 66
2017-09-05 23:00:00 20.5 10 Este 22 Este 0 -- -- 62
2017-09-05 22:00:00 21.7 14 Este 27 Nordeste 0 -- -- 58
2017-09-05 21:00:00 21.9 2 Sudeste 12 Norte 0 -- -- 52
2017-09-05 20:00:00 27.2 5 Noroeste 16 Noroeste 0 -- -- 36
2017-09-05 19:00:00 29.2 6 Oeste 19 Noroeste 0 -- -- 31
2017-09-05 18:00:00 29.3 8 Noroeste 22 Oeste 0 -- -- 32
2017-09-05 17:00:00 29.1 5 Noroeste 22 Noroeste 0 -- -- 33
2017-09-05 16:00:00 27.6 11 Oeste 24 Sudoeste 0 -- -- 36
2017-09-05 15:00:00 26.4 13 Oeste 27 Oeste 0 -- -- 39
2017-09-05 14:00:00 25.6 10 Noroeste 22 Oeste 0 -- -- 43
2017-09-05 13:00:00 25.7 8 Noroeste 24 Oeste 0 -- -- 42
2017-09-05 12:00:00 24.2 6 Noroeste 18 Noroeste 0 -- -- 47
2017-09-05 11:00:00 24.2 4 Este 10 Nordeste 0 -- -- 53
2017-09-05 10:00:00 21.3 3 Nordeste 4 Nordeste 0 -- -- 62
2017-09-05 09:00:00 15.8 3 Oeste 5 Oeste 0 -- -- 83
2017-09-05 08:00:00 12.4 3 Oeste 5 Oeste 0 -- -- 93
2017-09-05 07:00:00 13 0 Calma 8 Oeste 0 -- -- 90
2017-09-05 06:00:00 13.7 5 Oeste 9 Oeste 0 -- -- 91
2017-09-05 05:00:00 12.5 3 Noroeste 8 Oeste 0 -- -- 91
2017-09-05 04:00:00 12.4 4 Oeste 7 Oeste 0 -- -- 91
2017-09-05 03:00:00 13 3 Oeste 7 Oeste 0 -- -- 87
2017-09-05 02:00:00 12.9 2 Oeste 5 Oeste 0 -- -- 84
2017-09-05 01:00:00 13.2 4 Oeste 6 Oeste 0 -- -- 80
2017-09-05 00:00:00 14.4 3 Oeste 6 Sudeste 0 -- -- 76
2017-09-04 23:00:00 16.6 6 Sudeste 18 Este 0 -- -- 68
2017-09-04 22:00:00 18.6 13 Este 19 Este 0 -- -- 60
2017-09-04 21:00:00 19.5 7 Nordeste 19 Nordeste 0 -- -- 56
2017-09-04 20:00:00 23 9 Nordeste 19 Nordeste 0 -- -- 45
2017-09-04 19:00:00 24 11 Este 22 Nordeste 0 -- -- 42
2017-09-04 18:00:00 25.3 10 Nordeste 22 Este 0 -- -- 39
2017-09-04 17:00:00 25.3 14 Nordeste 31 Este 0 -- -- 40
2017-09-04 16:00:00 24.3 8 Norte 21 Nordeste 0 -- -- 40
2017-09-04 15:00:00 22.5 9 Nordeste 26 Nordeste 0 -- -- 46
2017-09-04 14:00:00 23.6 10 Nordeste 21 Este 0 -- -- 46
2017-09-04 13:00:00 22.5 7 Norte 22 Nordeste 0 -- -- 50
2017-09-04 12:00:00 20.9 7 Norte 24 Norte 0 -- -- 54
2017-09-04 11:00:00 20.4 9 Noroeste 24 Noroeste 0 -- -- 56
2017-09-04 10:00:00 18.7 10 Noroeste 31 Oeste 0 -- -- 58
2017-09-04 09:00:00 16.7 19 Oeste 26 Oeste 0 -- -- 54
2017-09-04 08:00:00 14.6 12 Oeste 18 Oeste 0 -- -- 53
2017-09-04 07:00:00 14.9 9 Noroeste 18 Noroeste 0 -- -- 47
2017-09-04 06:00:00 15.5 13 Noroeste 18 Oeste 0 -- -- 41
2017-09-04 05:00:00 15.2 8 Oeste 14 Oeste 0 -- -- 42
2017-09-04 04:00:00 16.1 10 Noroeste 14 Noroeste 0 -- -- 41
2017-09-04 03:00:00 14.5 2 Oeste 8 Sudoeste 0 -- -- 51
2017-09-04 02:00:00 13.3 3 Sudoeste 5 Oeste 0 -- -- 61
2017-09-04 01:00:00 13.9 4 Oeste 11 Oeste 0 -- -- 61
2017-09-04 00:00:00 14.3 8 Oeste 10 Oeste 0 -- -- 60
2017-09-03 23:00:00 17.4 4 Nordeste 9 Nordeste 0 -- -- 51
2017-09-03 22:00:00 20.1 0 Calma 8 Sudoeste 0 -- -- 42
2017-09-03 21:00:00 20.3 0 Calma 13 Oeste 0 -- -- 38
2017-09-03 20:00:00 25 9 Oeste 19 Noroeste 0 -- -- 27
2017-09-03 19:00:00 25.5 8 Norte 24 Oeste 0 -- -- 28
2017-09-03 18:00:00 26.7 12 Oeste 31 Oeste 0 -- -- 26
2017-09-03 17:00:00 26.5 13 Noroeste 34 Oeste 0 -- -- 27
2017-09-03 16:00:00 26 19 Noroeste 46 Oeste 0 -- -- 25
2017-09-03 15:00:00 24.7 18 Noroeste 36 Oeste 0 -- -- 25
2017-09-03 14:00:00 24.8 20 Noroeste 40 Oeste 0 -- -- 22
2017-09-03 13:00:00 23.1 19 Oeste 30 Noroeste 0 -- -- 26
2017-09-03 12:00:00 22 19 Noroeste 30 Oeste 0 -- -- 27
2017-09-03 11:00:00 19.4 10 Noroeste 20 Oeste 0 -- -- 37
2017-09-03 10:00:00 17.3 7 Oeste 12 Oeste 0 -- -- 41
2017-09-03 09:00:00 13.9 3 Oeste 8 Oeste 0 -- -- 53
2017-09-03 08:00:00 11.1 5 Oeste 10 Oeste 0 -- -- 60
2017-09-03 07:00:00 10.9 6 Oeste 10 Sudoeste 0 -- -- 61
2017-09-03 06:00:00 11.4 8 Oeste 15 Oeste 0 -- -- 57
2017-09-03 05:00:00 11.7 5 Oeste 9 Sudoeste 0 -- -- 56
2017-09-03 04:00:00 10.5 3 Oeste 7 Oeste 0 -- -- 64
2017-09-03 03:00:00 10 0 Calma 5 Sudoeste 0 -- -- 67
2017-09-03 02:00:00 11.2 3 Oeste 8 Oeste 0 -- -- 62
2017-09-03 01:00:00 11.4 2 Oeste 5 Oeste 0 -- -- 61
2017-09-03 00:00:00 11.6 2 Oeste 6 Oeste 0 -- -- 60
2017-09-02 23:00:00 11.5 2 Oeste 9 Oeste 0 -- -- 59
2017-09-02 22:00:00 12.9 3 Sudoeste 11 Oeste 0 -- -- 52
2017-09-02 21:00:00 15.8 4 Oeste 9 Noroeste 0 -- -- 44
2017-09-02 20:00:00 21.4 4 Noroeste 17 Norte 0 -- -- 29
2017-09-02 19:00:00 23.1 8 Norte 18 Noroeste 0 -- -- 25
2017-09-02 18:00:00 23.5 9 Noroeste 24 Nordeste 0 -- -- 26
2017-09-02 17:00:00 22.7 8 Norte 19 Norte 0 -- -- 31
2017-09-02 16:00:00 21.9 8 Nordeste 21 Nordeste 0 -- -- 32
2017-09-02 15:00:00 20.4 8 Nordeste 20 Norte 0 -- -- 35
2017-09-02 14:00:00 19.5 7 Nordeste 30 Nordeste 0 -- -- 41
2017-09-02 13:00:00 17.9 5 Este 17 Nordeste 0 -- -- 42
2017-09-02 12:00:00 16.2 6 Nordeste 18 Nordeste 0 -- -- 49
2017-09-02 11:00:00 14.5 8 Nordeste 17 Nordeste 0 -- -- 60
2017-09-02 10:00:00 13.9 3 Este 7 Nordeste 0 -- -- 67
2017-09-02 09:00:00 8.5 3 Oeste 8 Oeste 0 -- -- 90
2017-09-02 08:00:00 6.4 7 Oeste 9 Oeste 0 -- -- 94
2017-09-02 07:00:00 6.6 4 Oeste 7 Sudoeste 0 -- -- 93
2017-09-02 06:00:00 6.6 4 Noroeste 11 Oeste 0 -- -- 93
2017-09-02 05:00:00 7.6 4 Oeste 6 Oeste 0 -- -- 91
2017-09-02 04:00:00 7.7 0 Calma 4 Oeste 0 -- -- 92
2017-09-02 03:00:00 7.4 2 Oeste 6 Sur 0 -- -- 90
2017-09-02 02:00:00 8.5 3 Este 6 Sudeste 0 -- -- 88
2017-09-02 01:00:00 9.2 4 Sudeste 15 Este 0 -- -- 82
2017-09-02 00:00:00 10.4 10 Este 17 Este 0 -- -- 78
2017-09-01 23:00:00 11.1 10 Este 23 Este 0 -- -- 76
2017-09-01 22:00:00 12.5 14 Este 22 Este 0 -- -- 68
2017-09-01 21:00:00 14.1 12 Nordeste 24 Este 0 -- -- 60
2017-09-01 20:00:00 17.5 14 Nordeste 24 Nordeste 0 -- -- 54
2017-09-01 19:00:00 19.3 12 Nordeste 24 Norte 0 -- -- 49
2017-09-01 18:00:00 19.9 13 Nordeste 23 Nordeste 0 -- -- 49
2017-09-01 17:00:00 20.5 9 Este 26 Nordeste 0 -- -- 47
2017-09-01 16:00:00 20.1 12 Nordeste 22 Nordeste 0 -- -- 47
2017-09-01 15:00:00 20.2 9 Nordeste 23 Nordeste 0 -- -- 47
2017-09-01 14:00:00 19.6 8 Nordeste 23 Este 0 -- -- 49
2017-09-01 13:00:00 17.7 9 Nordeste 19 Nordeste 0 -- -- 50
2017-09-01 12:00:00 15.1 9 Sudeste 17 Sudeste 0 -- -- 57
2017-09-01 11:00:00 13.1 9 Nordeste 15 Nordeste 0 -- -- 66
2017-09-01 10:00:00 12.9 7 Sudeste 13 Este 0 -- -- 68
2017-09-01 09:00:00 11.5 9 Este 15 Este 0 -- -- 72
2017-09-01 08:00:00 10.9 8 Nordeste 15 Nordeste 0 -- -- 75
2017-09-01 07:00:00 11 9 Este 13 Sudeste 0 -- -- 75
2017-09-01 06:00:00 11.2 7 Este 12 Este 0 -- -- 76
2017-09-01 05:00:00 11.1 6 Este 11 Este 0 -- -- 81
2017-09-01 04:00:00 10.8 8 Sudeste 12 Sudeste 0 -- -- 85
2017-09-01 03:00:00 10.5 4 Nordeste 10 Nordeste 0 -- -- 87
2017-09-01 02:00:00 11.5 6 Nordeste 9 Nordeste 0 -- -- 87
2017-09-01 01:00:00 11.8 6 Sudeste 9 Este 0 -- -- 87
2017-09-01 00:00:00 12.2 3 Nordeste 15 Este 0 -- -- 84
2017-08-31 23:00:00 13.5 7 Este 16 Nordeste 0 -- -- 80
2017-08-31 22:00:00 14.6 12 Nordeste 20 Nordeste 0 -- -- 77
2017-08-31 21:00:00 16.1 15 Este 25 Este 0 -- -- 71
2017-08-31 20:00:00 19.5 13 Nordeste 22 Nordeste 0 -- -- 59
2017-08-31 19:00:00 21 11 Nordeste 24 Norte 0 -- -- 54
2017-08-31 18:00:00 20.2 15 Nordeste 26 Nordeste 0 -- -- 57
2017-08-31 17:00:00 21 9 Nordeste 18 Nordeste 0 -- -- 57
2017-08-31 16:00:00 20.2 5 Este 16 Nordeste 0 -- -- 58
2017-08-31 15:00:00 18.8 10 Nordeste 23 Nordeste 0 -- -- 66
2017-08-31 14:00:00 20 9 Nordeste 21 Nordeste 0 -- -- 63
2017-08-31 13:00:00 18.2 9 Nordeste 18 Nordeste 0 -- -- 67
2017-08-31 12:00:00 16.6 5 Sudeste 16 Este 0 -- -- 73
2017-08-31 11:00:00 16.2 10 Este 18 Este 0 -- -- 73
2017-08-31 10:00:00 13.7 9 Sudeste 17 Sudeste 0 -- -- 86
2017-08-31 09:00:00 12.6 7 Nordeste 13 Este 0 -- -- 89
2017-08-31 08:00:00 12.3 7 Nordeste 16 Este 0 -- -- 91
2017-08-31 07:00:00 12.4 12 Este 17 Este 0 -- -- 92
2017-08-31 06:00:00 12.9 8 Nordeste 14 Este 0 -- -- 91
2017-08-31 05:00:00 13.1 10 Nordeste 16 Nordeste 0 -- -- 92
2017-08-31 04:00:00 13.7 9 Nordeste 15 Este 0 -- -- 91
2017-08-31 03:00:00 14.8 9 Nordeste 14 Nordeste 0 -- -- 83
2017-08-31 02:00:00 15.8 5 Oeste 13 Sudoeste 0 -- -- 69
2017-08-31 01:00:00 16.1 7 Oeste 14 Oeste 0 -- -- 68
2017-08-31 00:00:00 16.4 13 Oeste 27 Oeste 0 -- -- 65
2017-08-30 23:00:00 17.7 10 Oeste 19 Oeste 0 -- -- 59
2017-08-30 22:00:00 17.3 9 Oeste 20 Sudoeste 0 -- -- 60
2017-08-30 21:00:00 18.8 5 Sudoeste 24 Sudoeste 0 -- -- 55
2017-08-30 20:00:00 22.7 10 Sudoeste 24 Oeste 0 -- -- 42
2017-08-30 19:00:00 23.8 9 Sudoeste 23 Sudoeste 0 -- -- 43
2017-08-30 18:00:00 23.3 17 Oeste 31 Oeste 0 -- -- 42
2017-08-30 17:00:00 23.2 11 Noroeste 24 Oeste 0 -- -- 43
2017-08-30 16:00:00 21.2 11 Oeste 26 Oeste 0 -- -- 50
2017-08-30 15:00:00 21.1 12 Noroeste 22 Oeste 0 -- -- 56
2017-08-30 14:00:00 22.5 3 Sur 17 Este 0 -- -- 54
2017-08-30 13:00:00 21.2 10 Este 17 Sudeste 0 -- -- 63
2017-08-30 12:00:00 20.8 6 Este 15 Sur 0 -- -- 58
2017-08-30 11:00:00 20.4 3 Este 12 Noroeste 0 -- -- 61
2017-08-30 10:00:00 17.2 4 Noroeste 12 Noroeste 0 -- -- 75
2017-08-30 09:00:00 14.5 3 Nordeste 10 Oeste 0 -- -- 90
2017-08-30 08:00:00 12.9 2 Norte 6 Sudeste 0 -- -- 94
2017-08-30 07:00:00 12.8 6 Sudeste 11 Sudeste 0 -- -- 92
2017-08-30 06:00:00 13.4 2 Oeste 10 Sudoeste 0 -- -- 87
2017-08-30 05:00:00 14.8 5 Sudoeste 18 Sur 0 -- -- 83
2017-08-30 04:00:00 14.8 6 Sur 28 Sudeste 0 -- -- 83
2017-08-30 03:00:00 15.2 13 Sudeste 27 Sudeste 0 -- -- 81
2017-08-30 02:00:00 16 15 Sur 31 Sudeste 0 -- -- 76
2017-08-30 01:00:00 16.8 17 Sur 31 Sur 0 -- -- 69
2017-08-30 00:00:00 16.3 13 Sudoeste 31 Sudoeste 0 -- -- 68
2017-08-29 23:00:00 15.4 9 Sudoeste 22 Oeste 0 -- -- 69
2017-08-29 22:00:00 15.2 3 Oeste 31 Sudeste 0 -- -- 72
2017-08-29 21:00:00 16.2 7 Sudoeste 24 Sudeste 0 -- -- 68
2017-08-29 20:00:00 16.6 8 Sur 29 Sudeste 0 -- -- 71
2017-08-29 19:00:00 17.3 15 Sur 34 Sur 0 -- -- 70
2017-08-29 18:00:00 18.5 18 Sudeste 39 Sudeste 0 -- -- 75
2017-08-29 17:00:00 19.8 21 Sur 36 Sur 0 -- -- 67
2017-08-29 16:00:00 20.2 26 Sudeste 37 Sudeste 0 -- -- 71
2017-08-29 15:00:00 22.5 15 Sudeste 26 Sudeste 0.2 -- -- 64
2017-08-29 14:00:00 21.5 17 Sudeste 29 Sudeste 0 -- -- 64
2017-08-29 13:00:00 21 14 Sudeste 26 Sudeste 0 -- -- 67
2017-08-29 12:00:00 18.8 10 Sudeste 19 Sudeste 0 -- -- 79
2017-08-29 11:00:00 18.2 8 Sudeste 14 Este 0 -- -- 75
2017-08-29 10:00:00 14.9 11 Sudeste 14 Sudeste 0 -- -- 89
2017-08-29 09:00:00 14.7 3 Oeste 10 Oeste 0 -- -- 93
2017-08-29 08:00:00 13.1 8 Oeste 14 Sudoeste 0 -- -- 97
2017-08-29 07:00:00 12.9 10 Este 17 Sudeste 0.6 -- -- 97
2017-08-29 06:00:00 11.9 7 Oeste 12 Oeste 0 -- -- 98
2017-08-29 05:00:00 11.9 0 Calma 8 Sudeste 0 -- -- 97
2017-08-29 04:00:00 12.2 5 Este 6 Este 0 -- -- 97
2017-08-29 03:00:00 11.8 0 Calma 6 Sudeste 0 -- -- 96
2017-08-29 02:00:00 12.4 2 Sudeste 4 Noroeste 0 -- -- 96
2017-08-29 01:00:00 12.5 3 Sur 7 Sudeste 0 -- -- 95
2017-08-29 00:00:00 12.9 3 Este 7 Este 0 -- -- 93
2017-08-28 23:00:00 13.3 6 Nordeste 26 Noroeste 0.4 -- -- 94
2017-08-28 22:00:00 13.6 15 Noroeste 39 Oeste 6 -- -- 95
2017-08-28 21:00:00 14.4 20 Oeste 45 Noroeste 0.6 -- -- 91
2017-08-28 20:00:00 15.5 19 Oeste 45 Oeste 0.4 -- -- 86
2017-08-28 19:00:00 14.7 4 Sudoeste 48 Sudoeste 22.8 -- -- 94
2017-08-28 18:00:00 16.6 18 Este 36 Este 6 -- -- 82
2017-08-28 17:00:00 24.3 19 Este 33 Este 0 -- -- 53
2017-08-28 16:00:00 25.4 11 Oeste 24 Oeste 0 -- -- 54
2017-08-28 15:00:00 21.2 10 Oeste 45 Oeste 0 -- -- 65
2017-08-28 14:00:00 27.7 25 Sudeste 35 Este 0 -- -- 43
2017-08-28 13:00:00 26.1 18 Este 27 Este 0 -- -- 48
2017-08-28 12:00:00 25.3 17 Este 24 Este 0 -- -- 56
2017-08-28 11:00:00 24.3 13 Este 18 Este 0 -- -- 58
2017-08-28 10:00:00 23 10 Sudeste 22 Sur 0 -- -- 56
2017-08-28 09:00:00 21 16 Sudoeste 36 Sudoeste 0 -- -- 55
2017-08-28 08:00:00 20.7 21 Sudoeste 42 Sur 0 -- -- 56
2017-08-28 07:00:00 20.7 22 Sudoeste 39 Sudoeste 0 -- -- 56
2017-08-28 06:00:00 16.9 3 Este 13 Sudeste 0 -- -- 72
2017-08-28 05:00:00 15.4 2 Nordeste 13 Oeste 0 -- -- 77
2017-08-28 04:00:00 13.6 6 Oeste 10 Oeste 0 -- -- 86
2017-08-28 03:00:00 13.6 6 Oeste 10 Oeste 0 -- -- 88
2017-08-28 02:00:00 13.1 0 Calma 5 Oeste 0 -- -- 94
2017-08-28 01:00:00 13.3 0 Calma 8 Oeste 0 -- -- 94
2017-08-28 00:00:00 13.5 4 Oeste 6 Oeste 0 -- -- 93
2017-08-27 23:00:00 14.2 3 Nordeste 5 Oeste 0 -- -- 92
2017-08-27 22:00:00 14.8 0 Calma 28 Este 0 -- -- 89
2017-08-27 21:00:00 15.7 16 Sudeste 30 Este 0 -- -- 84
2017-08-27 20:00:00 16 7 Sur 28 Este 0 -- -- 84
2017-08-27 19:00:00 16.8 4 Este 28 Sudoeste 1 -- -- 84
2017-08-27 18:00:00 15.4 10 Sudoeste 32 Sudoeste 2 -- -- 87
2017-08-27 17:00:00 19.5 13 Sudoeste 26 Sudoeste 0 -- -- 70
2017-08-27 16:00:00 19.1 9 Oeste 22 Oeste 0.8 -- -- 77
2017-08-27 15:00:00 17.4 4 Noroeste 30 Oeste 1.6 -- -- 87
2017-08-27 14:00:00 18.9 17 Oeste 45 Oeste 0.4 -- -- 78
2017-08-27 13:00:00 22.9 4 Nordeste 14 Este 0 -- -- 59
2017-08-27 12:00:00 23.9 4 Este 10 Sudeste 0 -- -- 60
2017-08-27 11:00:00 20.7 6 Este 13 Noroeste 0.2 -- -- 70
2017-08-27 10:00:00 20.8 6 Oeste 17 Sudeste 0 -- -- 61
2017-08-27 09:00:00 20.9 10 Sudoeste 16 Sudoeste 0 -- -- 56
2017-08-27 08:00:00 17.1 5 Sudeste 8 Sudeste 0 -- -- 80
2017-08-27 07:00:00 16 3 Nordeste 5 Este 0 -- -- 91
2017-08-27 06:00:00 15.6 0 Calma 9 Sur 0 -- -- 90
2017-08-27 05:00:00 15.4 3 Oeste 12 Oeste 0 -- -- 88
2017-08-27 04:00:00 15.6 8 Oeste 13 Oeste 0.2 -- -- 85
2017-08-27 03:00:00 15.1 3 Este 35 Sudoeste 1 -- -- 88
2017-08-27 02:00:00 -- -- -- -- -- 3.2 -- -- --
2017-08-27 01:00:00 19.5 5 Oeste 15 Oeste 0 -- -- 49
2017-08-27 00:00:00 20.4 13 Oeste 24 Sudeste 0 -- -- 49
2017-08-26 23:00:00 20.8 7 Este 21 Sudeste 0 -- -- 56
2017-08-26 22:00:00 21.7 8 Sudeste 38 Oeste 0 -- -- 56
2017-08-26 21:00:00 24.4 23 Sudoeste 42 Sudoeste 0 -- -- 32
2017-08-26 20:00:00 27.1 10 Sudeste 20 Sudeste 0 -- -- 34
2017-08-26 19:00:00 27.8 14 Sudeste 32 Sudeste 0 -- -- 33
2017-08-26 18:00:00 29.9 15 Sudeste 30 Este 0 -- -- 30
2017-08-26 17:00:00 28.9 12 Sudoeste 41 Noroeste 0 -- -- 30
2017-08-26 16:00:00 29.4 17 Oeste 31 Oeste 0 -- -- 24
2017-08-26 15:00:00 30.9 8 Sur 31 Oeste 0 -- -- 22
2017-08-26 14:00:00 30.8 16 Oeste 31 Sudoeste 0 -- -- 22
2017-08-26 13:00:00 31.5 14 Sudoeste 37 Oeste 0 -- -- 23
2017-08-26 12:00:00 30.8 16 Oeste 37 Oeste 0 -- -- 24
2017-08-26 11:00:00 29.1 18 Sudoeste 32 Sudoeste 0 -- -- 27
2017-08-26 10:00:00 27.6 10 Sudoeste 22 Sur 0 -- -- 29
2017-08-26 09:00:00 24.1 15 Sur 26 Sur 0 -- -- 40
2017-08-26 08:00:00 22.1 18 Sudoeste 27 Sudoeste 0 -- -- 42
2017-08-26 07:00:00 22.4 15 Sudoeste 27 Sudoeste 0 -- -- 41
2017-08-26 06:00:00 22.5 14 Sudoeste 24 Sudoeste 0 -- -- 40
2017-08-26 05:00:00 22.9 15 Sudoeste 28 Sudoeste 0 -- -- 39
2017-08-26 04:00:00 23.1 14 Sudoeste 29 Sudoeste 0 -- -- 38
2017-08-26 03:00:00 23.3 14 Sudoeste 32 Sur 0 -- -- 38
2017-08-26 02:00:00 23.5 15 Sudoeste 28 Sur 0 -- -- 38
2017-08-26 01:00:00 22.6 14 Sudoeste 33 Sudoeste 0 -- -- 43
2017-08-26 00:00:00 22.3 16 Sudoeste 40 Sudoeste 0 -- -- 49